Terminal Aerodrome Forecast
Issued by NWS

Home | Current Version | Previous Version | Graphics & Text | Print | Product List | Glossary On
Versions: 1 2 3 4 5 6 7 8 9 10 11 12 13 14 15 16 17 18 19
000
FTUS43 KUNR 232151 AAA
TAFGCC
TAF AMD
KGCC 232151Z 2322/2418 33006KT P6SM SCT250
     FM240000 35008KT P6SM OVC020
     FM240500 36011KT 1 1/2SM -SN OVC008=

USA.gov is the U.S. government's official web portal to all federal, state and local government web resources and services.